METAR AND TAF INFORMATION
METAR FOR EBFN
ADDS - METARS form results

(0642 UTC 27 October 2020)
Data provider http://aviationweather.gov/metar/data/
 
METAR text: EBFN 270633Z 21010KT 9999 FEW065 BKN220 09/08 Q1003 BLU BLU BECMG WHT
Conditions at: EBFN (KOKSIJDE (BEL-AF, BE) observed 0633 UTC 27 October 2020
Temperature: 9.0°C (48°F)
Dewpoint: 8.0°C (46°F) [RH = 93%]
Pressure (altimeter): 29.62 inches Hg (1003.0 mb)
Winds: from the SSW (210 degrees) at 12 MPH (10 knots; 5.1 m/s)
Visibility: 6 or more miles (10+ km)
Ceiling: 22000 feet AGL
Clouds: few clouds at 6500 feet AGL
broken clouds at 22000 feet AGL
Weather: no significant weather observed at this time

METAR text: EBFN 270625Z 21009KT 9999 FEW065 BKN220 09/08 Q1003 BLU BLU BECMG WHT
Conditions at: EBFN (KOKSIJDE (BEL-AF, BE) observed 0625 UTC 27 October 2020
Temperature: 9.0°C (48°F)
Dewpoint: 8.0°C (46°F) [RH = 93%]
Pressure (altimeter): 29.62 inches Hg (1003.0 mb)
Winds: from the SSW (210 degrees) at 10 MPH (9 knots; 4.6 m/s)
Visibility: 6 or more miles (10+ km)
Ceiling: 22000 feet AGL
Clouds: few clouds at 6500 feet AGL
broken clouds at 22000 feet AGL
Weather: no significant weather observed at this time

METAR text: EBFN 270555Z 21009KT 9999 VCSH FEW070 BKN220 08/07 Q1003 BLU BLU
Conditions at: EBFN (KOKSIJDE (BEL-AF, BE) observed 0555 UTC 27 October 2020
Temperature: 8.0°C (46°F)
Dewpoint: 7.0°C (45°F) [RH = 93%]
Pressure (altimeter): 29.62 inches Hg (1003.0 mb)
Winds: from the SSW (210 degrees) at 10 MPH (9 knots; 4.6 m/s)
Visibility: 6 or more miles (10+ km)
Ceiling: 22000 feet AGL
Clouds: few clouds at 7000 feet AGL
broken clouds at 22000 feet AGL
Weather: VCSH  (showers in vicinity)

METAR text: EBFN 270554Z 21009KT 9999 VCSH FEW070 BKN220 08/07 Q1003 BLU BLU
Conditions at: EBFN (KOKSIJDE (BEL-AF, BE) observed 0554 UTC 27 October 2020
Temperature: 8.0°C (46°F)
Dewpoint: 7.0°C (45°F) [RH = 93%]
Pressure (altimeter): 29.62 inches Hg (1003.0 mb)
Winds: from the SSW (210 degrees) at 10 MPH (9 knots; 4.6 m/s)
Visibility: 6 or more miles (10+ km)
Ceiling: 22000 feet AGL
Clouds: few clouds at 7000 feet AGL
broken clouds at 22000 feet AGL
Weather: VCSH  (showers in vicinity)

Forecast for: COR
Text: TAF COR EBFN 270605Z 2707/2716 20015G25KT 9999 SCT025
Forecast period: 0700 to 0800 UTC 27 October 2020
Forecast type: FROM: standard forecast or significant change
Winds: from the SSW (200 degrees) at 17 MPH (15 knots; 7.7 m/s)
gusting to 29 MPH (25 knots; 12.9 m/s)
Visibility: 6 or more miles (10+ km)
Ceiling: at least 12,000 feet AGL
Clouds: scattered clouds at 2500 feet AGL
Weather: no significant weather forecast for this period
Text: BECMG 2708/2710 5000 -RA -RADZ BKN015
Forecast period: 0800 to 1600 UTC 27 October 2020
Forecast type: BECOMING: Conditions expected to become as follows by 1000 UTC 27 October 2020
Winds: from the SSW (200 degrees) at 17 MPH (15 knots; 7.7 m/s)
gusting to 29 MPH (25 knots; 12.9 m/s)
Visibility: 3 miles (5 km)
Ceiling: 1500 feet AGL
Clouds: broken clouds at 1500 feet AGL
Weather: -RA -RA -DZ  (light rain, light rain, light drizzle)
Text: TEMPO 2713/2716 20020G35KT 3000 RA RADZ FEW006 BKN010
Forecast period: 1300 to 1600 UTC 27 October 2020
Forecast type: TEMPORARY: The following changes expected for less than half the time period
Winds: from the SSW (200 degrees) at 23 MPH (20 knots; 10.3 m/s)
gusting to 40 MPH (35 knots; 18.0 m/s)
Visibility: 1.86 miles (2.99 km)
Ceiling: 1000 feet AGL
Clouds: few clouds at 600 feet AGL
broken clouds at 1000 feet AGL
Weather: RA RA DZ  (moderate rain, moderate rain, moderate drizzle)

 AIRPORT MAP

 RUNWAY INFORMATION
Runway 11 Runway length 8786 ft Runway width 164 ft
Runway elevation 14 ft Runway displaced threshold 1526 ft Runway heading 108
Runway 29 Runway length 8786 ft Runway width 164 ft
Runway elevation 20 ft Runway displaced threshold 311 ft Runway heading 288

 AIRPORT FREQUENCIES
Type APP Name APP Frequency 122.5 MHZ
Type EMR Name SAR Frequency 123.1 MHZ
Type EMR Name SAR Frequency 568 MHZ
Type GND Name TAXI Frequency 122.1 MHZ
Type INFO Name BELGA INFO Frequency 129.325 MHZ
Type TWR Name TWR Frequency 122.1 MHZ

 AIRPORT NEAR NAVIGATION AIDS
Type VORTAC Name Koksy Frequency 114500 KHZ